Time;durP1;ratioP1;P1;durP2;ratioP2;P2;SDS_P1;SDS_P2;PMS_P1;PMS_P2;Temp;Humidity;BMP_temperature;BMP_pressure;BME280_temperature;BME280_humidity;BME280_pressure;Samples;Min_cycle;Max_cycle;Signal;HPM_P1;HPM_P2
2022/06/11 00:00:23;;;;;;;7.22;3.65;;;;;;;18.36;61.24;101193.34;4194932;28;20127;-64
2022/06/11 00:02:26;;;;;;;5.80;3.08;;;;;;;18.33;61.54;101188.13;4195897;28;20037;-64
2022/06/11 00:04:33;;;;;;;6.80;3.42;;;;;;;18.30;61.36;101191.63;4186602;28;20040;-64
2022/06/11 00:06:39;;;;;;;8.75;3.28;;;;;;;18.29;61.48;101195.13;4187345;28;20040;-64
2022/06/11 00:08:44;;;;;;;5.90;3.15;;;;;;;18.26;61.36;101192.53;4181985;28;20037;-64
2022/06/11 00:10:47;;;;;;;10.00;3.53;;;;;;;18.18;61.93;101194.31;4190616;28;20036;-64
2022/06/11 00:12:50;;;;;;;8.23;3.33;;;;;;;18.14;61.76;101198.72;4185196;28;20072;-64
2022/06/11 00:14:54;;;;;;;7.38;3.10;;;;;;;18.16;61.37;101198.72;4187290;28;20071;-64
2022/06/11 00:16:58;;;;;;;6.35;3.33;;;;;;;18.08;61.71;101197.00;4189129;28;20040;-64
2022/06/11 00:19:03;;;;;;;7.97;3.72;;;;;;;18.06;61.95;101196.16;4196389;28;20037;-64
2022/06/11 00:21:06;;;;;;;9.65;3.80;;;;;;;18.09;62.09;101193.50;4174175;28;20696;-64
2022/06/11 00:23:09;;;;;;;8.18;3.25;;;;;;;18.08;62.24;101194.38;4182850;28;20055;-64
2022/06/11 00:25:15;;;;;;;8.50;3.70;;;;;;;18.08;62.38;101194.38;4186155;28;20047;-65
2022/06/11 00:27:19;;;;;;;7.00;3.63;;;;;;;18.05;62.47;101189.13;4190674;28;20574;-64
2022/06/11 00:29:25;;;;;;;4.90;3.00;;;;;;;18.05;62.82;101189.13;4194719;28;20045;-64
2022/06/11 00:31:29;;;;;;;5.28;2.88;;;;;;;18.01;63.00;101197.91;4187334;28;20502;-64
2022/06/11 00:33:32;;;;;;;8.07;3.78;;;;;;;18.01;63.06;101186.53;4187443;28;20128;-64
2022/06/11 00:35:36;;;;;;;8.40;3.88;;;;;;;17.99;62.75;101189.16;4191639;28;20044;-65
2022/06/11 00:37:39;;;;;;;7.78;3.15;;;;;;;17.96;63.22;101197.06;4190363;28;20047;-64
2022/06/11 00:39:42;;;;;;;8.13;3.35;;;;;;;17.99;62.87;101193.53;4190951;28;20051;-64
2022/06/11 00:41:50;;;;;;;9.70;3.15;;;;;;;17.98;63.10;101190.03;4189099;28;20028;-64
2022/06/11 00:43:53;;;;;;;8.77;3.42;;;;;;;17.95;63.02;101193.56;4185943;28;20492;-65
2022/06/11 00:46:01;;;;;;;6.72;3.42;;;;;;;17.98;62.63;101192.66;4187767;28;20037;-64
2022/06/11 00:48:07;;;;;;;6.65;3.40;;;;;;;17.93;62.96;101199.69;4195210;28;20040;-65
2022/06/11 00:50:20;;;;;;;7.60;3.90;;;;;;;17.89;62.88;101190.06;4186459;28;20041;-64
2022/06/11 00:52:31;;;;;;;7.97;3.72;;;;;;;17.84;63.26;101192.69;4184386;28;20394;-65
2022/06/11 00:54:36;;;;;;;9.48;4.13;;;;;;;17.82;63.49;101191.81;4170325;28;20064;-64
2022/06/11 00:56:45;;;;;;;8.68;3.88;;;;;;;17.80;63.54;101194.47;4190552;28;20514;-65
2022/06/11 00:58:52;;;;;;;6.85;3.75;;;;;;;17.77;64.46;101189.22;4195858;28;20131;-64
2022/06/11 01:00:57;;;;;;;8.05;4.22;;;;;;;17.77;64.46;101191.84;4196048;28;20068;-64
2022/06/11 01:03:02;;;;;;;8.65;4.00;;;;;;;17.78;65.44;101190.09;4189832;28;20036;-65
2022/06/11 01:05:06;;;;;;;6.05;3.60;;;;;;;17.75;65.41;101184.84;4197131;28;20043;-64
2022/06/11 01:07:21;;;;;;;6.28;4.07;;;;;;;17.72;65.52;101183.09;4190748;28;20033;-64
2022/06/11 01:09:33;;;;;;;9.55;3.92;;;;;;;17.69;65.91;101180.47;4197792;28;20495;-65
2022/06/11 01:11:52;;;;;;;9.05;4.22;;;;;;;17.69;66.77;101183.09;4184566;28;20029;-64
2022/06/11 01:14:10;;;;;;;9.20;3.97;;;;;;;17.67;66.83;101189.25;4191491;28;21348;-64
2022/06/11 01:16:20;;;;;;;6.80;3.80;;;;;;;17.63;66.57;101185.75;4197228;28;20067;-64
2022/06/11 01:18:30;;;;;;;7.47;3.60;;;;;;;17.62;66.54;101191.88;4197320;28;20748;-65
2022/06/11 01:20:41;;;;;;;11.43;3.80;;;;;;;17.58;66.58;101188.41;4192994;28;20094;-65
2022/06/11 01:23:25;;;;;;;6.10;3.75;;;;;;;17.57;66.48;101196.31;4166415;28;20546;-64
2022/06/11 01:25:33;;;;;;;8.52;3.95;;;;;;;17.54;66.67;101194.56;4114088;28;20082;-64
2022/06/11 01:27:52;;;;;;;4.88;2.75;;;;;;;17.56;66.73;101192.78;4194879;28;20053;-64
2022/06/11 01:29:59;;;;;;;8.07;3.60;;;;;;;17.40;67.08;101189.31;4191159;28;20127;-67
2022/06/11 01:32:08;;;;;;;10.52;4.28;;;;;;;17.25;67.51;101184.09;4195595;28;20036;-66
2022/06/11 01:34:22;;;;;;;7.28;3.83;;;;;;;17.25;67.50;101190.22;4196176;28;20090;-66
2022/06/11 01:36:29;;;;;;;7.93;3.57;;;;;;;17.24;67.49;101183.25;4196479;28;20054;-66
2022/06/11 01:38:37;;;;;;;6.35;3.47;;;;;;;17.30;67.04;101179.69;4189076;28;20127;-67
2022/06/11 01:40:48;;;;;;;7.95;3.85;;;;;;;17.32;66.64;101177.97;4194645;28;20055;-64
2022/06/11 01:42:55;;;;;;;8.85;3.83;;;;;;;17.31;66.38;101177.97;4189687;28;20064;-64
2022/06/11 01:45:12;;;;;;;7.53;4.10;;;;;;;17.31;66.55;101177.97;4196618;28;20041;-64
2022/06/11 01:47:15;;;;;;;8.60;3.97;;;;;;;17.27;66.72;101182.34;4189764;28;20382;-66
2022/06/11 01:49:42;;;;;;;7.03;3.78;;;;;;;17.31;66.71;101183.22;4190732;28;20056;-66
2022/06/11 01:51:56;;;;;;;7.35;3.80;;;;;;;17.28;66.67;101186.72;4188211;28;20124;-67
2022/06/11 01:54:33;;;;;;;6.30;3.53;;;;;;;17.22;66.96;101184.13;4190900;28;20043;-66
2022/06/11 01:57:11;;;;;;;6.53;3.33;;;;;;;17.19;67.16;101185.00;4145663;28;20402;-66
2022/06/11 01:59:27;;;;;;;6.68;3.92;;;;;;;17.22;67.06;101184.13;4178235;28;20064;-67
2022/06/11 02:01:46;;;;;;;5.57;3.60;;;;;;;17.23;67.05;101181.47;4175386;28;20045;-66
2022/06/11 02:04:00;;;;;;;8.52;4.35;;;;;;;17.15;67.30;101177.97;4186771;28;20072;-67
2022/06/11 02:06:24;;;;;;;7.13;3.95;;;;;;;17.14;67.51;101181.47;4211788;28;20044;-64
2022/06/11 02:08:33;;;;;;;8.75;4.07;;;;;;;17.15;67.24;101182.38;4181828;28;20415;-64
2022/06/11 02:10:41;;;;;;;10.45;4.30;;;;;;;17.13;67.45;101184.09;4191356;28;20044;-64
2022/06/11 02:12:49;;;;;;;11.48;4.90;;;;;;;17.13;67.85;101185.00;4186964;28;20124;-64
2022/06/11 02:14:56;;;;;;;8.25;3.60;;;;;;;17.13;67.71;101184.09;4197090;28;20040;-64
2022/06/11 02:17:06;;;;;;;7.43;4.22;;;;;;;17.10;68.01;101185.88;4193035;28;20036;-66
2022/06/11 02:19:13;;;;;;;8.82;3.65;;;;;;;17.05;68.05;101185.00;4194753;28;20028;-64
2022/06/11 02:21:21;;;;;;;6.72;3.78;;;;;;;17.05;67.98;101184.13;4185697;28;20540;-67
2022/06/11 02:23:29;;;;;;;9.55;3.47;;;;;;;17.02;68.34;101186.75;4189492;28;20032;-67
2022/06/11 02:25:37;;;;;;;10.20;3.67;;;;;;;17.04;68.18;101190.25;4194619;28;20048;-66
2022/06/11 02:27:42;;;;;;;11.15;3.95;;;;;;;17.07;67.90;101187.66;4192531;28;20033;-67
2022/06/11 02:29:47;;;;;;;9.93;3.90;;;;;;;17.08;68.00;101186.75;4194464;28;20532;-67
2022/06/11 02:31:53;;;;;;;12.05;4.65;;;;;;;17.08;68.03;101179.75;4183895;28;20059;-67
2022/06/11 02:34:01;;;;;;;7.35;3.22;;;;;;;17.06;68.10;101189.38;4192019;28;20130;-67
2022/06/11 02:36:13;;;;;;;10.02;3.80;;;;;;;17.05;68.05;101182.38;4187215;28;20066;-67
2022/06/11 02:38:20;;;;;;;9.35;4.13;;;;;;;17.04;68.23;101188.50;4190217;28;20625;-65
2022/06/11 02:40:31;;;;;;;7.70;3.60;;;;;;;17.02;68.26;101186.75;4193752;28;20119;-66
2022/06/11 02:42:34;;;;;;;10.80;4.63;;;;;;;16.99;68.52;101181.50;4181212;28;20401;-65
2022/06/11 02:44:37;;;;;;;6.85;3.80;;;;;;;16.98;68.50;101196.41;4187124;28;20036;-65
2022/06/11 02:46:44;;;;;;;8.60;3.67;;;;;;;16.95;68.72;101191.13;4196407;28;20403;-65
2022/06/11 02:48:47;;;;;;;7.95;3.45;;;;;;;16.94;68.99;101192.03;4188217;28;20128;-65
2022/06/11 02:50:53;;;;;;;6.78;3.88;;;;;;;16.96;68.89;101198.16;4174531;28;20048;-65
2022/06/11 02:52:57;;;;;;;8.50;4.30;;;;;;;16.95;69.16;101199.00;4180844;28;20060;-65
2022/06/11 02:55:00;;;;;;;9.05;4.03;;;;;;;16.94;69.27;101194.66;4188284;28;20124;-66
2022/06/11 02:57:05;;;;;;;8.18;3.88;;;;;;;16.98;69.17;101200.75;4192585;28;20040;-65
2022/06/11 02:59:08;;;;;;;8.68;4.20;;;;;;;16.96;69.08;101187.63;4186761;28;20071;-66
2022/06/11 03:01:11;;;;;;;10.93;4.20;;;;;;;17.00;68.90;101189.38;4189794;28;20029;-65
2022/06/11 03:03:15;;;;;;;8.05;3.80;;;;;;;16.99;68.99;101192.88;4182539;28;20049;-65
2022/06/11 03:05:21;;;;;;;;;;;;;;;16.78;69.97;101192.84;4195528;28;20047;-65
2022/06/11 03:07:25;;;;;;;8.90;3.90;;;;;;;16.80;69.56;101199.84;4191106;28;19974;-65
2022/06/11 03:09:30;;;;;;;;;;;;;;;16.67;70.09;101190.22;4188750;28;20094;-65
2022/06/11 03:11:33;;;;;;;6.57;3.67;;;;;;;16.68;70.11;101198.09;4185590;28;20007;-65
2022/06/11 03:13:36;;;;;;;7.15;3.58;;;;;;;16.75;69.99;101199.00;4180662;28;20295;-65
2022/06/11 03:15:40;;;;;;;10.77;4.82;;;;;;;16.76;70.15;101195.47;4192771;28;20505;-65
2022/06/11 03:17:46;;;;;;;7.18;3.92;;;;;;;16.81;69.50;101204.25;4192121;28;20036;-65
2022/06/11 03:19:49;;;;;;;10.95;4.28;;;;;;;16.80;69.57;101207.72;4186810;28;20126;-65
2022/06/11 03:21:54;;;;;;;10.18;4.43;;;;;;;16.80;69.67;101201.63;4180622;28;20400;-65
2022/06/11 03:23:59;;;;;;;7.25;4.03;;;;;;;16.85;69.54;101202.47;4189669;28;20037;-65
2022/06/11 03:26:02;;;;;;;;;;;;;;;16.69;70.21;101204.22;4192530;28;20039;-65
2022/06/11 03:28:09;;;;;;;8.18;4.20;;;;;;;16.72;70.10;101201.63;4189961;28;20377;-65
2022/06/11 03:30:15;;;;;;;9.15;3.55;;;;;;;16.72;70.24;101201.63;4185553;28;20044;-65
2022/06/11 03:32:18;;;;;;;8.95;4.18;;;;;;;16.71;70.25;101211.22;4190049;28;20120;-65
2022/06/11 03:34:22;;;;;;;8.65;4.00;;;;;;;16.74;70.68;101210.38;4194721;28;20033;-65
2022/06/11 03:36:25;;;;;;;7.53;3.90;;;;;;;16.78;70.70;101209.50;4190074;28;20357;-65
2022/06/11 03:38:28;;;;;;;6.40;4.05;;;;;;;16.82;70.72;101215.63;4194760;28;20059;-65
2022/06/11 03:40:33;;;;;;;5.82;3.72;;;;;;;16.81;70.58;101219.13;4179253;28;20033;-65
2022/06/11 03:42:36;;;;;;;8.75;4.45;;;;;;;16.73;71.13;101216.47;4179929;28;20069;-65
2022/06/11 03:44:39;;;;;;;5.65;3.28;;;;;;;16.75;70.97;101210.38;4195148;28;20497;-65
2022/06/11 03:46:42;;;;;;;6.90;4.28;;;;;;;16.79;70.69;101215.63;4195327;28;20119;-65
2022/06/11 03:48:45;;;;;;;7.70;4.07;;;;;;;16.84;71.07;101219.13;4188641;28;20037;-65
2022/06/11 03:50:49;;;;;;;9.98;3.90;;;;;;;16.87;70.95;101216.50;4191354;28;20032;-65
2022/06/11 03:52:52;;;;;;;5.45;3.25;;;;;;;16.90;70.62;101224.41;4183639;28;20055;-65
2022/06/11 03:54:56;;;;;;;5.32;3.20;;;;;;;16.90;70.93;101224.41;4189697;28;20029;-65
2022/06/11 03:57:00;;;;;;;6.65;4.13;;;;;;;16.94;71.03;101223.53;4180630;28;20045;-65
2022/06/11 03:59:03;;;;;;;;;;;;;;;16.91;71.24;101221.78;4191445;28;20548;-65
2022/06/11 04:01:15;;;;;;;10.00;5.15;;;;;;;17.08;70.68;101216.53;4187792;28;19925;-65
2022/06/11 04:03:18;;;;;;;9.45;5.38;;;;;;;17.00;70.98;101226.16;4178854;28;20498;-65
2022/06/11 04:05:21;;;;;;;7.73;4.10;;;;;;;16.97;71.23;101220.91;4171527;28;20572;-65
2022/06/11 04:07:24;;;;;;;8.98;4.35;;;;;;;16.91;71.35;101218.28;4188205;28;20799;-65
2022/06/11 04:09:30;;;;;;;5.88;3.88;;;;;;;16.88;71.78;101229.66;4187473;28;20036;-65
2022/06/11 04:11:34;;;;;;;8.68;4.70;;;;;;;16.92;71.90;101222.66;4185111;28;20510;-65
2022/06/11 04:13:40;;;;;;;8.70;3.75;;;;;;;16.97;71.51;101226.16;4187882;28;20494;-65
2022/06/11 04:15:45;;;;;;;12.20;4.60;;;;;;;17.03;71.42;101231.41;4188801;28;20052;-65
2022/06/11 04:17:48;;;;;;;6.30;3.60;;;;;;;17.08;71.48;101234.94;4187521;28;20079;-65
2022/06/11 04:19:52;;;;;;;7.07;3.92;;;;;;;17.13;71.31;101236.66;4193206;28;20052;-65
2022/06/11 04:21:57;;;;;;;7.87;3.70;;;;;;;17.10;71.23;101242.81;4191318;28;20037;-65
2022/06/11 04:24:00;;;;;;;;;;;;;;;16.93;71.88;101248.91;4184436;28;20035;-65
2022/06/11 04:26:08;;;;;;;9.75;4.05;;;;;;;17.05;71.62;101247.19;4189528;28;20015;-65
2022/06/11 04:28:11;;;;;;;10.68;5.10;;;;;;;17.13;71.59;101242.81;4190151;28;20033;-65
2022/06/11 04:30:16;;;;;;;7.40;3.97;;;;;;;17.23;71.22;101256.78;4195463;28;20064;-65
2022/06/11 04:32:20;;;;;;;8.07;3.65;;;;;;;17.30;70.98;101250.66;4189996;28;20095;-65
2022/06/11 04:34:24;;;;;;;7.50;3.90;;;;;;;17.35;70.95;101248.06;4195409;28;20043;-65
2022/06/11 04:36:30;;;;;;;6.60;3.00;;;;;;;17.45;70.73;101255.03;4191615;28;20568;-65
2022/06/11 04:38:34;;;;;;;7.50;3.67;;;;;;;17.52;70.85;101255.91;4165279;28;20068;-65
2022/06/11 04:40:37;;;;;;;7.18;3.30;;;;;;;17.55;70.50;101255.88;4190630;28;20033;-65
2022/06/11 04:42:40;;;;;;;6.22;3.60;;;;;;;17.59;70.09;101252.38;4188588;28;20060;-65
2022/06/11 04:44:45;;;;;;;7.55;3.58;;;;;;;17.60;69.18;101257.63;4194109;28;20386;-65
2022/06/11 04:46:50;;;;;;;7.43;3.88;;;;;;;17.64;68.73;101250.63;4190909;28;20068;-65
2022/06/11 04:48:53;;;;;;;9.00;3.20;;;;;;;17.63;68.58;101248.88;4195519;28;20585;-65
2022/06/11 04:50:56;;;;;;;6.95;3.28;;;;;;;17.62;68.31;101244.47;4196376;28;20050;-65
2022/06/11 04:52:59;;;;;;;6.57;2.97;;;;;;;17.62;68.19;101252.38;4187114;28;20136;-65
2022/06/11 04:55:03;;;;;;;5.68;2.95;;;;;;;17.65;67.64;101246.22;4189562;28;20124;-64
2022/06/11 04:57:06;;;;;;;11.32;3.92;;;;;;;17.66;67.45;101246.22;4197694;28;20398;-65
2022/06/11 04:59:09;;;;;;;5.80;2.75;;;;;;;17.67;67.01;101253.25;4198237;28;20063;-65
2022/06/11 05:01:15;;;;;;;5.57;2.90;;;;;;;17.69;66.58;101256.75;4196238;28;20045;-65
2022/06/11 05:03:20;;;;;;;6.25;2.85;;;;;;;17.59;66.69;101252.38;4184427;28;20498;-65
2022/06/11 05:05:23;;;;;;;7.40;3.08;;;;;;;17.58;66.48;101258.50;4197309;28;20093;-65
2022/06/11 05:07:26;;;;;;;6.93;3.15;;;;;;;17.61;66.49;101255.91;4197095;28;20413;-65
2022/06/11 05:09:30;;;;;;;6.90;2.97;;;;;;;17.56;66.45;101268.16;4188883;28;20387;-65
2022/06/11 05:11:33;;;;;;;6.40;2.78;;;;;;;17.55;66.24;101266.41;4210680;28;20406;-65
2022/06/11 05:13:36;;;;;;;8.52;2.70;;;;;;;17.59;66.14;101265.53;4198179;28;20044;-65
2022/06/11 05:15:43;;;;;;;7.55;2.78;;;;;;;17.66;66.17;101269.91;4195961;28;20051;-65
2022/06/11 05:17:46;;;;;;;10.68;2.75;;;;;;;17.64;65.81;101266.41;4195700;28;20040;-65
2022/06/11 05:19:51;;;;;;;5.75;2.75;;;;;;;17.69;65.54;101267.25;4196163;28;20118;-65
2022/06/11 05:21:55;;;;;;;6.07;3.03;;;;;;;17.74;65.00;101276.03;4193504;28;20037;-65
2022/06/11 05:23:58;;;;;;;3.22;2.30;;;;;;;17.79;64.93;101271.59;4186202;28;20032;-65
2022/06/11 05:26:01;;;;;;;5.28;2.72;;;;;;;17.88;64.53;101275.97;4193610;28;20060;-65
2022/06/11 05:28:06;;;;;;;8.95;2.85;;;;;;;17.93;63.93;101283.88;4191186;28;20502;-65
2022/06/11 05:30:15;;;;;;;7.85;2.58;;;;;;;17.97;63.39;101277.72;4192607;28;20135;-65
2022/06/11 05:32:19;;;;;;;9.50;3.35;;;;;;;18.01;63.52;101282.09;4196404;28;20043;-66
2022/06/11 05:34:22;;;;;;;7.10;3.08;;;;;;;18.04;63.30;101281.22;4196408;28;20060;-66
2022/06/11 05:36:27;;;;;;;11.55;3.70;;;;;;;18.10;63.19;101281.19;4194847;28;20432;-66
2022/06/11 05:38:30;;;;;;;;;;;;;;;18.03;63.14;101282.97;4172439;28;20583;-65
2022/06/11 05:40:38;;;;;;;6.03;3.03;;;;;;;18.13;63.40;101283.81;4210971;28;19930;-66
2022/06/11 05:42:42;;;;;;;9.25;3.22;;;;;;;18.21;62.86;101279.41;4186609;28;20514;-66
2022/06/11 05:44:50;;;;;;;6.55;3.00;;;;;;;18.26;62.96;101266.22;4195761;28;20041;-66
2022/06/11 05:46:54;;;;;;;8.02;2.60;;;;;;;18.35;63.09;101271.44;4194931;28;20124;-65
2022/06/11 05:49:02;;;;;;;7.20;2.38;;;;;;;18.34;63.46;101272.34;4194489;28;20449;-65
2022/06/11 05:51:07;;;;;;;9.38;2.80;;;;;;;18.31;62.79;101274.97;4194923;28;20179;-65
2022/06/11 05:53:20;;;;;;;6.45;2.78;;;;;;;18.40;61.78;101274.94;4181942;28;20063;-64
2022/06/11 05:55:28;;;;;;;8.45;2.90;;;;;;;18.57;61.31;101266.91;4187749;28;20032;-64
2022/06/11 05:57:31;;;;;;;7.13;2.80;;;;;;;18.66;60.91;101272.16;4185856;28;20128;-65
2022/06/11 05:59:39;;;;;;;6.53;2.88;;;;;;;18.68;61.06;101269.50;4187903;28;20037;-64
2022/06/11 06:01:42;;;;;;;4.47;2.03;;;;;;;18.56;61.17;101270.47;4193986;28;20441;-64
2022/06/11 06:03:45;;;;;;;6.72;2.83;;;;;;;18.71;60.86;101274.75;4181956;28;20056;-64
2022/06/11 06:05:48;;;;;;;6.63;2.53;;;;;;;18.83;60.90;101268.53;4186030;28;20037;-65
2022/06/11 06:07:52;;;;;;;8.30;2.63;;;;;;;18.77;61.53;101274.69;4181713;28;20041;-64
2022/06/11 06:09:56;;;;;;;7.07;2.38;;;;;;;18.79;61.05;101269.41;4189299;28;20048;-66
2022/06/11 06:11:59;;;;;;;3.53;1.95;;;;;;;18.86;60.93;101267.63;4181625;28;20033;-65
2022/06/11 06:14:03;;;;;;;6.93;2.45;;;;;;;19.01;60.08;101267.53;4181960;28;20518;-65
2022/06/11 06:16:06;;;;;;;3.83;1.90;;;;;;;19.02;60.50;101264.03;4185957;28;20047;-65
2022/06/11 06:18:09;;;;;;;7.10;2.30;;;;;;;19.06;60.33;101260.47;4197211;28;20405;-65
2022/06/11 06:20:14;;;;;;;4.78;2.45;;;;;;;19.11;59.34;101260.44;4196908;28;20131;-63
2022/06/11 06:22:18;;;;;;;5.75;2.42;;;;;;;19.23;60.09;101270.00;4185997;28;20064;-64
2022/06/11 06:24:20;;;;;;;6.72;2.63;;;;;;;19.24;59.09;101269.13;4187750;28;20040;-64
2022/06/11 06:26:25;;;;;;;8.30;2.60;;;;;;;19.42;59.02;101266.31;4185914;28;20063;-64
2022/06/11 06:28:28;;;;;;;4.95;2.42;;;;;;;19.45;59.35;101274.19;4186956;28;20041;-63
2022/06/11 06:30:31;;;;;;;5.15;2.10;;;;;;;19.48;59.84;101273.31;4190506;28;20044;-63
2022/06/11 06:32:34;;;;;;;4.95;2.20;;;;;;;19.46;59.19;101275.94;4192019;28;20108;-62
2022/06/11 06:34:37;;;;;;;6.35;2.00;;;;;;;19.35;59.06;101277.81;4191198;28;20465;-63
2022/06/11 06:36:40;;;;;;;7.70;2.03;;;;;;;19.34;58.63;101279.56;4162608;28;20112;-63
2022/06/11 06:38:44;;;;;;;9.35;2.70;;;;;;;19.46;59.24;101264.53;4190353;28;20049;-63
2022/06/11 06:40:47;;;;;;;;;;;;;;;19.36;59.24;101269.00;4193536;28;20083;-63
2022/06/11 06:42:53;;;;;;;6.17;2.63;;;;;;;19.54;58.99;101257.41;4190968;28;20027;-63
2022/06/11 06:44:58;;;;;;;3.83;2.05;;;;;;;19.48;58.86;101257.47;4172393;28;20358;-64
2022/06/11 06:47:01;;;;;;;4.28;2.40;;;;;;;19.50;59.14;101263.59;4181145;28;20049;-63
2022/06/11 06:49:04;;;;;;;3.80;2.05;;;;;;;19.42;59.17;101270.69;4193417;28;20090;-63
2022/06/11 06:51:07;;;;;;;5.20;2.50;;;;;;;19.47;59.27;101266.28;4188669;28;20136;-64
2022/06/11 06:53:10;;;;;;;6.93;2.67;;;;;;;19.79;59.13;101275.66;4185923;28;20032;-63
2022/06/11 06:55:14;;;;;;;7.20;2.60;;;;;;;19.81;57.91;101280.00;4187366;28;20490;-64
2022/06/11 06:57:17;;;;;;;7.13;2.60;;;;;;;19.71;58.84;101280.97;4182417;28;20512;-63
2022/06/11 06:59:22;;;;;;;5.80;2.40;;;;;;;19.77;58.66;101283.56;4186812;28;20436;-63
2022/06/11 07:01:26;;;;;;;5.20;2.40;;;;;;;19.92;58.67;101285.19;4180230;28;20411;-63
2022/06/11 07:03:32;;;;;;;6.35;2.25;;;;;;;19.94;59.43;101285.16;4187114;28;20036;-64
2022/06/11 07:05:36;;;;;;;4.60;2.13;;;;;;;20.01;59.94;101286.84;4179876;28;20442;-64
2022/06/11 07:07:40;;;;;;;6.95;2.63;;;;;;;20.14;58.97;101284.94;4184198;28;20041;-65
2022/06/11 07:09:43;;;;;;;7.53;3.40;;;;;;;20.23;58.14;101287.44;4187564;28;20032;-64
2022/06/11 07:11:46;;;;;;;6.18;3.20;;;;;;;20.25;57.19;101282.16;4190282;28;20036;-64
2022/06/11 07:13:49;;;;;;;6.68;2.63;;;;;;;20.16;58.70;101280.50;4189294;28;20045;-64
2022/06/11 07:15:56;;;;;;;5.20;2.10;;;;;;;20.08;58.55;101284.97;4188971;28;20033;-64
2022/06/11 07:18:03;;;;;;;8.00;2.38;;;;;;;20.08;59.71;101280.59;4195332;28;20048;-64
2022/06/11 07:20:12;;;;;;;4.80;2.42;;;;;;;20.05;59.94;101280.63;4172578;28;20124;-64
2022/06/11 07:22:20;;;;;;;4.78;2.03;;;;;;;20.15;59.93;101282.28;4180878;28;20075;-64
2022/06/11 07:24:27;;;;;;;5.97;2.40;;;;;;;20.27;59.44;101285.63;4163088;28;20072;-64
2022/06/11 07:26:34;;;;;;;7.50;3.03;;;;;;;20.32;58.92;101282.03;4180275;28;20544;-64
2022/06/11 07:28:41;;;;;;;7.47;3.55;;;;;;;20.60;57.07;101283.44;4163084;28;20115;-64
2022/06/11 07:30:46;;;;;;;3.65;2.20;;;;;;;20.58;57.14;101279.03;4186906;28;20055;-64
2022/06/11 07:32:56;;;;;;;8.27;2.30;;;;;;;20.58;57.62;101281.69;4179607;28;20072;-63
2022/06/11 07:35:00;;;;;;;5.43;2.60;;;;;;;20.63;57.66;101281.59;4192866;28;20048;-62
2022/06/11 07:37:03;;;;;;;5.05;2.45;;;;;;;20.55;57.29;101283.50;4185840;28;20065;-62
2022/06/11 07:39:06;;;;;;;6.17;2.40;;;;;;;20.70;56.27;101270.09;4190716;28;20131;-63
2022/06/11 07:41:09;;;;;;;6.13;2.30;;;;;;;20.80;56.49;101270.84;4188984;28;20381;-63
2022/06/11 07:43:12;;;;;;;5.40;2.75;;;;;;;20.82;56.50;101277.00;4187301;28;20074;-67
2022/06/11 07:45:16;;;;;;;7.18;2.88;;;;;;;21.01;55.88;101280.22;4188546;28;20040;-63
2022/06/11 07:47:53;;;;;;;5.80;2.67;;;;;;;21.15;56.15;101277.31;4181323;28;20391;-62
2022/06/11 07:49:44;;;;;;;5.50;2.88;;;;;;;21.27;54.89;101277.13;4182548;28;20041;-64
2022/06/11 07:51:47;;;;;;;9.05;3.05;;;;;;;21.28;55.25;101278.88;4182877;28;20047;-67
2022/06/11 07:53:50;;;;;;;6.50;2.72;;;;;;;21.33;54.94;101275.28;4187214;28;20504;-66
2022/06/11 07:55:55;;;;;;;6.70;2.30;;;;;;;21.32;56.02;101284.09;4184563;28;20048;-66
2022/06/11 07:57:59;;;;;;;5.35;2.00;;;;;;;21.36;56.35;101281.41;4186451;28;20394;-65
2022/06/11 08:00:03;;;;;;;3.50;1.75;;;;;;;21.43;56.07;101283.00;4190737;28;20045;-65
2022/06/11 08:02:14;;;;;;;8.85;2.15;;;;;;;21.59;55.11;101278.34;4195022;28;20044;-65
2022/06/11 08:04:17;;;;;;;7.22;2.20;;;;;;;21.63;54.87;101275.66;4194608;28;20160;-65
2022/06/11 08:06:21;;;;;;;4.30;2.15;;;;;;;21.70;55.08;101280.81;4194957;28;20098;-64
2022/06/11 08:08:25;;;;;;;3.92;2.03;;;;;;;21.75;55.12;101286.00;4194412;28;20076;-65
2022/06/11 08:10:33;;;;;;;6.00;2.20;;;;;;;21.85;55.31;101279.63;4181188;28;20048;-65
2022/06/11 08:12:36;;;;;;;4.93;2.45;;;;;;;21.92;55.01;101275.97;4186869;28;20127;-65
2022/06/11 08:14:39;;;;;;;5.00;2.08;;;;;;;21.90;54.89;101277.78;4189539;28;20135;-64
2022/06/11 08:16:42;;;;;;;3.67;2.05;;;;;;;21.88;54.92;101279.56;4195206;28;20060;-64
2022/06/11 08:18:45;;;;;;;6.22;2.65;;;;;;;21.93;55.13;101276.81;4196177;28;20063;-64
2022/06/11 08:20:49;;;;;;;6.65;2.60;;;;;;;22.14;53.87;101278.19;4189194;28;20127;-65
2022/06/11 08:22:54;;;;;;;6.95;2.55;;;;;;;22.06;54.08;101280.09;4199610;28;20050;-65
2022/06/11 08:24:57;;;;;;;5.80;2.45;;;;;;;22.08;53.75;101278.31;4193215;28;20055;-64
2022/06/11 08:27:00;;;;;;;4.78;2.53;;;;;;;22.12;53.99;101282.63;4198128;28;20041;-64
2022/06/11 08:29:08;;;;;;;6.05;2.28;;;;;;;22.14;53.50;101279.03;4198339;28;20093;-64
2022/06/11 08:31:10;;;;;;;6.60;2.67;;;;;;;22.03;52.97;101277.53;4187743;28;20510;-66
2022/06/11 08:33:14;;;;;;;6.95;2.40;;;;;;;22.08;53.20;101281.81;4189784;28;20190;-66
2022/06/11 08:35:19;;;;;;;6.50;2.63;;;;;;;22.13;53.16;101281.72;4192591;28;20047;-67
2022/06/11 08:37:23;;;;;;;7.65;2.60;;;;;;;22.27;52.93;101273.50;4192501;28;20052;-69
2022/06/11 08:39:27;;;;;;;5.13;2.50;;;;;;;22.35;52.75;101276.00;4192299;28;20493;-65
2022/06/11 08:41:35;;;;;;;4.20;2.28;;;;;;;22.38;52.64;101281.22;4199103;28;20072;-65
2022/06/11 08:43:42;;;;;;;4.63;2.30;;;;;;;22.40;52.02;101277.66;4188497;28;20429;-66
2022/06/11 08:45:48;;;;;;;7.43;2.47;;;;;;;22.54;52.19;101266.72;4191413;28;20064;-69
2022/06/11 08:47:59;;;;;;;6.55;2.88;;;;;;;22.58;52.36;101271.06;4190609;28;20082;-68
2022/06/11 08:50:08;;;;;;;6.65;2.78;;;;;;;22.61;52.25;101270.13;4193559;28;20047;-68
2022/06/11 08:52:16;;;;;;;6.07;2.63;;;;;;;22.77;51.50;101270.63;4191896;28;20135;-67
2022/06/11 08:54:21;;;;;;;4.28;2.05;;;;;;;22.87;51.79;101261.56;4193188;28;20127;-66
2022/06/11 08:56:33;;;;;;;6.78;2.58;;;;;;;22.94;51.26;101257.84;4190267;28;20033;-65
2022/06/11 08:58:56;;;;;;;3.95;2.25;;;;;;;23.02;51.32;101258.50;4188369;28;20054;-66
2022/06/11 09:01:06;;;;;;;7.25;3.20;;;;;;;23.34;49.37;101259.50;4188935;28;20127;-66
2022/06/11 09:03:21;;;;;;;9.60;3.63;;;;;;;23.32;48.94;101257.81;4194747;28;20082;-64
2022/06/11 09:06:03;;;;;;;10.20;3.30;;;;;;;23.34;49.57;101256.00;4189439;28;20481;-63
2022/06/11 09:08:24;;;;;;;7.18;3.08;;;;;;;23.30;50.72;101265.78;4192282;28;20299;-62
2022/06/11 09:10:41;;;;;;;6.13;2.53;;;;;;;23.38;50.70;101256.75;4182696;28;20037;-63
2022/06/11 09:13:14;;;;;;;5.40;2.35;;;;;;;23.51;50.63;101255.56;4187662;28;20041;-63
2022/06/11 09:15:30;;;;;;;6.60;2.80;;;;;;;23.62;50.06;101245.50;4189705;28;20040;-63
2022/06/11 09:17:55;;;;;;;3.72;1.83;;;;;;;23.70;49.88;101253.25;4197102;28;20041;-63
2022/06/11 09:20:10;;;;;;;8.98;3.35;;;;;;;23.87;48.44;101247.50;4191957;28;20492;-63
2022/06/11 09:22:34;;;;;;;11.90;2.80;;;;;;;23.91;48.28;101240.31;4193088;28;20114;-62
2022/06/11 09:24:55;;;;;;;7.38;2.13;;;;;;;23.84;47.43;101255.50;4187641;28;20052;-62
2022/06/11 09:27:03;;;;;;;7.63;2.25;;;;;;;23.85;46.39;101251.94;4194382;28;20486;-61
2022/06/11 09:29:13;;;;;;;5.47;2.30;;;;;;;24.03;46.05;101253.22;4192537;28;20040;-61
2022/06/11 09:31:26;;;;;;;4.97;1.52;;;;;;;24.17;45.83;101250.19;4193669;28;20099;-61
2022/06/11 09:33:34;;;;;;;4.45;1.60;;;;;;;24.27;44.93;101248.97;4196337;28;20128;-63
2022/06/11 09:35:42;;;;;;;2.78;1.30;;;;;;;24.23;43.72;101248.19;4184512;28;20536;-61
2022/06/11 09:37:55;;;;;;;5.45;2.60;;;;;;;24.30;43.45;101248.88;4191976;28;20124;-60
2022/06/11 09:40:07;;;;;;;5.72;1.95;;;;;;;24.39;43.05;101256.56;4193257;28;20043;-67
2022/06/11 09:42:28;;;;;;;5.18;1.60;;;;;;;24.42;42.64;101252.09;4195422;28;20064;-66
2022/06/11 09:44:39;;;;;;;6.10;1.70;;;;;;;24.55;42.80;101248.13;4191556;28;20044;-61
2022/06/11 09:46:49;;;;;;;4.20;1.50;;;;;;;24.63;43.19;101251.41;4194814;28;20032;-62
2022/06/11 09:49:20;;;;;;;5.65;1.50;;;;;;;24.72;42.98;101244.94;4187094;28;20056;-69
2022/06/11 09:51:32;;;;;;;5.00;2.00;;;;;;;24.86;42.19;101240.03;4194752;28;20067;-64